createdAt,value
2023-08-31T00:01:34.233Z,25.04
2023-08-31T00:06:36.969Z,25.42
2023-08-31T00:11:40.016Z,24.01
2023-08-31T00:16:42.983Z,23.38
2023-08-31T00:21:45.946Z,24.86
2023-08-31T00:26:52.438Z,25.43
2023-08-31T00:31:55.170Z,24.59
2023-08-31T00:36:57.923Z,22.65
2023-08-31T00:42:01.723Z,23.19
2023-08-31T00:47:04.655Z,24.64
2023-08-31T00:52:08.409Z,25.23
2023-08-31T00:57:11.115Z,24.74
2023-08-31T01:02:23.344Z,22.77
2023-08-31T01:07:47.685Z,22.61
2023-08-31T01:12:53.601Z,24.32
2023-08-31T01:17:59.655Z,24.98
2023-08-31T01:23:11.356Z,25.37
2023-08-31T01:28:14.532Z,24.46
2023-08-31T01:33:17.235Z,22.60
2023-08-31T01:38:26.463Z,22.60
2023-08-31T01:43:31.208Z,24.34
2023-08-31T01:48:41.499Z,25.09
2023-08-31T01:53:45.803Z,25.28
2023-08-31T01:58:48.643Z,23.55
2023-08-31T02:03:51.528Z,23.17
2023-08-31T02:08:54.239Z,24.74
2023-08-31T02:13:58.111Z,25.19
2023-08-31T02:19:01.050Z,23.49
2023-08-31T02:24:04.374Z,22.92
2023-08-31T02:29:07.164Z,24.49
2023-08-31T02:34:10.066Z,25.16
2023-08-31T02:39:14.127Z,24.05
2023-08-31T02:44:16.949Z,22.22
2023-08-31T02:49:19.649Z,22.27
2023-08-31T02:54:22.400Z,24.00
2023-08-31T02:59:25.100Z,24.67
2023-08-31T03:04:28.068Z,24.26
2023-08-31T03:09:30.797Z,22.19
2023-08-31T03:14:33.848Z,21.87
2023-08-31T03:19:36.592Z,23.26
2023-08-31T03:24:39.272Z,23.84
2023-08-31T03:29:42.010Z,24.07
2023-08-31T03:34:44.713Z,24.28
2023-08-31T03:39:49.070Z,23.49
2023-08-31T03:44:51.765Z,22.31
2023-08-31T03:49:54.558Z,23.27
2023-08-31T03:54:57.344Z,23.65
2023-08-31T04:00:00.154Z,23.91
2023-08-31T04:05:06.559Z,22.59
2023-08-31T04:10:09.643Z,21.69
2023-08-31T04:15:14.806Z,22.71
2023-08-31T04:20:17.922Z,22.99
2023-08-31T04:25:20.696Z,23.10
2023-08-31T04:30:23.453Z,23.30
2023-08-31T04:35:26.347Z,23.02
2023-08-31T04:40:31.986Z,21.32
2023-08-31T04:45:35.107Z,22.43
2023-08-31T04:50:37.919Z,23.05
2023-08-31T04:55:40.806Z,23.48
2023-08-31T05:00:45.546Z,22.75
2023-08-31T05:05:48.468Z,21.63
2023-08-31T05:10:51.298Z,22.41
2023-08-31T05:15:53.975Z,22.77
2023-08-31T05:20:56.730Z,23.01
2023-08-31T05:26:00.086Z,23.32
2023-08-31T05:31:06.532Z,23.58
2023-08-31T05:36:09.377Z,22.89
2023-08-31T05:41:12.314Z,21.72
2023-08-31T05:46:15.185Z,22.80
2023-08-31T05:51:17.969Z,23.34
2023-08-31T05:56:20.971Z,22.45
2023-08-31T06:01:23.948Z,22.02
2023-08-31T06:06:26.899Z,23.08
2023-08-31T06:11:29.629Z,23.40
2023-08-31T06:16:32.439Z,22.13
2023-08-31T06:21:35.525Z,21.46
2023-08-31T06:26:38.244Z,22.69
2023-08-31T06:31:41.019Z,23.11
2023-08-31T06:36:43.788Z,22.52
2023-08-31T06:41:46.480Z,20.62
2023-08-31T06:46:49.167Z,21.63
2023-08-31T06:51:52.081Z,22.68
2023-08-31T06:56:54.783Z,23.02
2023-08-31T07:01:57.487Z,22.62
2023-08-31T07:07:00.401Z,21.59
2023-08-31T07:12:03.718Z,22.55
2023-08-31T07:17:06.444Z,23.09
2023-08-31T07:22:09.381Z,22.60
2023-08-31T07:27:12.117Z,21.70
2023-08-31T07:32:15.001Z,22.74
2023-08-31T07:37:17.705Z,22.51
2023-08-31T07:42:20.429Z,21.60
2023-08-31T07:47:23.220Z,22.72
2023-08-31T07:52:26.213Z,23.15
2023-08-31T07:57:29.012Z,21.62
2023-08-31T08:02:31.843Z,21.93
2023-08-31T08:07:34.560Z,22.49
2023-08-31T08:12:41.308Z,21.06
2023-08-31T08:17:44.120Z,22.17
2023-08-31T08:22:48.743Z,23.01
2023-08-31T08:27:51.556Z,21.73
2023-08-31T08:32:54.349Z,22.86
2023-08-31T08:37:57.395Z,22.84
2023-08-31T08:43:01.904Z,21.93
2023-08-31T08:48:08.690Z,22.90
2023-08-31T08:53:12.522Z,21.58
2023-08-31T08:58:15.336Z,22.15
2023-08-31T09:03:18.244Z,23.31
2023-08-31T09:08:27.907Z,23.08
2023-08-31T09:13:31.239Z,22.59
2023-08-31T09:18:35.377Z,23.80
2023-08-31T09:23:38.201Z,22.42
2023-08-31T09:28:42.160Z,22.43
2023-08-31T09:33:54.196Z,23.94
2023-08-31T09:39:00.512Z,22.68
2023-08-31T09:44:17.572Z,23.31
2023-08-31T09:49:22.502Z,24.00
2023-08-31T09:54:27.559Z,22.60
2023-08-31T09:59:30.886Z,22.60
2023-08-31T10:04:36.276Z,23.52
2023-08-31T10:09:39.919Z,22.15
2023-08-31T10:14:43.488Z,22.49
2023-08-31T10:19:46.312Z,23.99
2023-08-31T10:25:00.089Z,22.94
2023-08-31T10:30:29.908Z,22.39
2023-08-31T10:35:52.277Z,24.21
2023-08-31T10:41:04.109Z,24.21
2023-08-31T10:46:16.704Z,23.20
2023-08-31T10:51:22.401Z,22.85
2023-08-31T10:56:31.190Z,22.58
2023-08-31T11:01:52.598Z,23.45
2023-08-31T11:07:15.653Z,22.70
2023-08-31T11:12:18.689Z,22.14
2023-08-31T11:17:21.632Z,21.97
2023-08-31T11:22:24.577Z,23.48
2023-08-31T11:27:27.610Z,23.48
2023-08-31T11:32:30.331Z,23.07
2023-08-31T11:37:33.885Z,22.92
2023-08-31T11:42:36.698Z,22.85
2023-08-31T11:47:40.658Z,22.79
2023-08-31T11:52:43.912Z,22.76
2023-08-31T11:57:55.695Z,22.88
2023-08-31T12:02:59.940Z,23.16
2023-08-31T12:08:03.643Z,23.43
2023-08-31T12:13:10.852Z,23.49
2023-08-31T12:18:15.334Z,23.21
2023-08-31T12:23:20.725Z,23.02
2023-08-31T12:28:24.776Z,22.93
2023-08-31T12:33:27.596Z,22.91
2023-08-31T12:38:30.306Z,22.80
2023-08-31T12:43:33.092Z,22.73
2023-08-31T12:48:36.672Z,22.79
2023-08-31T12:53:40.666Z,22.81
2023-08-31T12:58:44.040Z,22.84
2023-08-31T13:03:51.202Z,22.85
2023-08-31T13:08:53.922Z,22.77
2023-08-31T13:13:57.046Z,22.56
2023-08-31T13:18:59.810Z,22.29
2023-08-31T13:24:02.563Z,21.96
2023-08-31T13:29:06.101Z,21.29
2023-08-31T13:34:09.063Z,20.31
2023-08-31T13:39:11.838Z,19.52
2023-08-31T13:44:14.591Z,20.37
2023-08-31T13:49:17.354Z,22.81
2023-08-31T13:54:20.166Z,22.92
2023-08-31T13:59:22.999Z,21.19
2023-08-31T14:04:25.767Z,21.02
2023-08-31T14:09:31.540Z,22.92
2023-08-31T14:14:34.336Z,22.22
2023-08-31T14:19:37.115Z,20.71
2023-08-31T14:24:39.848Z,19.89
2023-08-31T14:29:42.973Z,21.41
2023-08-31T14:34:45.826Z,24.46
2023-08-31T14:39:48.595Z,25.96
2023-08-31T14:44:51.456Z,25.43
2023-08-31T14:49:56.716Z,24.14
2023-08-31T14:55:01.450Z,23.34
2023-08-31T15:00:06.850Z,23.46
2023-08-31T15:05:09.826Z,22.66
2023-08-31T15:10:12.636Z,21.63
2023-08-31T15:15:15.799Z,21.09
2023-08-31T15:20:19.082Z,22.58
2023-08-31T15:25:22.056Z,21.98
2023-08-31T15:30:24.867Z,20.75
2023-08-31T15:35:27.655Z,21.15
2023-08-31T15:40:30.389Z,23.16
2023-08-31T15:45:33.238Z,22.41
2023-08-31T15:50:36.024Z,21.13
2023-08-31T15:55:38.764Z,21.38
2023-08-31T16:00:41.754Z,23.13
2023-08-31T16:05:50.122Z,22.07
2023-08-31T16:10:52.898Z,20.93
2023-08-31T16:15:56.724Z,22.23
2023-08-31T16:21:02.622Z,24.12
2023-08-31T16:26:05.471Z,22.64
2023-08-31T16:31:08.248Z,21.41
2023-08-31T16:36:11.030Z,22.69
2023-08-31T16:41:14.016Z,23.15
2023-08-31T16:46:16.790Z,21.55
2023-08-31T16:51:19.679Z,21.53
2023-08-31T16:56:22.410Z,23.40
2023-08-31T17:01:25.694Z,22.51
2023-08-31T17:06:29.988Z,20.92
2023-08-31T17:11:34.997Z,21.21
2023-08-31T17:16:37.921Z,22.49
2023-08-31T17:21:41.564Z,21.01
2023-08-31T17:26:44.291Z,20.97
2023-08-31T17:31:47.198Z,22.95
2023-08-31T17:36:49.943Z,23.03
2023-08-31T17:41:52.718Z,21.17
2023-08-31T17:46:56.912Z,19.94
2023-08-31T17:51:59.957Z,20.49
2023-08-31T17:57:03.785Z,22.53
2023-08-31T18:02:06.629Z,22.27
2023-08-31T18:07:09.420Z,20.60
2023-08-31T18:12:12.218Z,19.61
2023-08-31T18:17:15.023Z,20.09
2023-08-31T18:22:18.124Z,22.21
2023-08-31T18:27:21.038Z,21.96
2023-08-31T18:32:23.925Z,20.18
2023-08-31T18:37:26.930Z,19.97
2023-08-31T18:42:29.861Z,20.87
2023-08-31T18:47:32.610Z,19.30
2023-08-31T18:52:35.522Z,19.87
2023-08-31T18:57:38.952Z,19.97
2023-08-31T19:02:43.992Z,18.38
2023-08-31T19:07:47.295Z,19.13
2023-08-31T19:12:50.761Z,19.04
2023-08-31T19:17:53.641Z,18.17
2023-08-31T19:22:56.490Z,19.47
2023-08-31T19:28:03.832Z,18.08
2023-08-31T19:33:06.582Z,18.20
2023-08-31T19:38:09.370Z,19.25
2023-08-31T19:43:12.687Z,17.75
2023-08-31T19:48:15.708Z,17.91
2023-08-31T19:53:18.846Z,20.09
2023-08-31T19:58:21.679Z,19.65
2023-08-31T20:03:24.736Z,17.87
2023-08-31T20:08:27.701Z,16.91
2023-08-31T20:13:30.399Z,17.52
2023-08-31T20:18:33.173Z,19.83
2023-08-31T20:23:35.954Z,19.97
2023-08-31T20:28:38.673Z,18.14
2023-08-31T20:33:41.357Z,17.00
2023-08-31T20:38:44.159Z,17.47
2023-08-31T20:43:47.005Z,19.82
2023-08-31T20:48:49.682Z,19.23
2023-08-31T20:53:52.359Z,17.57
2023-08-31T20:58:55.373Z,16.64
2023-08-31T21:03:59.759Z,17.20
2023-08-31T21:09:04.880Z,19.59
2023-08-31T21:14:07.862Z,19.75
2023-08-31T21:19:12.353Z,17.88
2023-08-31T21:24:15.090Z,16.71
2023-08-31T21:29:17.790Z,17.71
2023-08-31T21:34:20.523Z,19.52
2023-08-31T21:39:23.238Z,18.02
2023-08-31T21:44:25.927Z,16.94
2023-08-31T21:49:28.631Z,18.93
2023-08-31T21:54:31.330Z,19.35
2023-08-31T21:59:34.025Z,17.53
2023-08-31T22:04:37.197Z,16.44
2023-08-31T22:09:41.103Z,16.95
2023-08-31T22:14:47.365Z,19.36
2023-08-31T22:19:50.172Z,19.44
2023-08-31T22:24:53.676Z,17.46
2023-08-31T22:29:56.376Z,17.42
2023-08-31T22:34:59.368Z,19.51
2023-08-31T22:40:02.448Z,18.48
2023-08-31T22:45:06.804Z,16.82
2023-08-31T22:50:10.119Z,17.40
2023-08-31T22:55:12.984Z,19.25
2023-08-31T23:00:15.943Z,17.98
2023-08-31T23:05:18.646Z,16.50
2023-08-31T23:10:30.523Z,17.45
2023-08-31T23:15:38.404Z,19.50
2023-08-31T23:20:41.372Z,18.45
2023-08-31T23:25:44.153Z,16.82
2023-08-31T23:30:46.928Z,18.46
2023-08-31T23:35:49.690Z,19.07
2023-08-31T23:41:00.005Z,17.23
2023-08-31T23:46:04.373Z,17.25
2023-08-31T23:51:07.067Z,19.52
2023-08-31T23:56:10.075Z,19.12
